sensor_id;sensor_type;location;lat;lon;timestamp;P1;durP1;ratioP1;P2;durP2;ratioP2
4819;SDS011;2424;49.696;6.630;2023-05-07T00:04:04;1.37;;;1.27;;
4819;SDS011;2424;49.696;6.630;2023-05-07T00:09:28;1.60;;;0.97;;
4819;SDS011;2424;49.696;6.630;2023-05-07T00:14:50;1.07;;;1.07;;
4819;SDS011;2424;49.696;6.630;2023-05-07T00:20:12;0.90;;;0.90;;
4819;SDS011;2424;49.696;6.630;2023-05-07T00:25:35;1.17;;;1.10;;
4819;SDS011;2424;49.696;6.630;2023-05-07T00:30:57;1.20;;;1.20;;
4819;SDS011;2424;49.696;6.630;2023-05-07T00:36:19;1.17;;;1.10;;
4819;SDS011;2424;49.696;6.630;2023-05-07T00:41:42;1.17;;;1.07;;
4819;SDS011;2424;49.696;6.630;2023-05-07T00:47:05;1.30;;;1.30;;
4819;SDS011;2424;49.696;6.630;2023-05-07T00:52:27;1.00;;;1.00;;
4819;SDS011;2424;49.696;6.630;2023-05-07T00:57:51;1.43;;;1.33;;
4819;SDS011;2424;49.696;6.630;2023-05-07T01:03:13;1.00;;;1.00;;
4819;SDS011;2424;49.696;6.630;2023-05-07T01:08:36;1.30;;;1.30;;
4819;SDS011;2424;49.696;6.630;2023-05-07T01:14:01;1.10;;;1.10;;
4819;SDS011;2424;49.696;6.630;2023-05-07T01:19:23;1.10;;;1.10;;
4819;SDS011;2424;49.696;6.630;2023-05-07T01:24:47;1.10;;;1.10;;
4819;SDS011;2424;49.696;6.630;2023-05-07T01:30:09;1.00;;;1.00;;
4819;SDS011;2424;49.696;6.630;2023-05-07T01:35:34;1.20;;;1.20;;
4819;SDS011;2424;49.696;6.630;2023-05-07T01:41:01;1.20;;;1.20;;
4819;SDS011;2424;49.696;6.630;2023-05-07T01:46:23;1.33;;;1.33;;
4819;SDS011;2424;49.696;6.630;2023-05-07T01:51:46;0.90;;;0.90;;
4819;SDS011;2424;49.696;6.630;2023-05-07T01:57:10;1.30;;;1.20;;
4819;SDS011;2424;49.696;6.630;2023-05-07T02:02:32;1.40;;;1.40;;
4819;SDS011;2424;49.696;6.630;2023-05-07T02:07:54;0.90;;;0.90;;
4819;SDS011;2424;49.696;6.630;2023-05-07T02:13:17;1.13;;;1.13;;
4819;SDS011;2424;49.696;6.630;2023-05-07T02:18:39;0.90;;;0.90;;
4819;SDS011;2424;49.696;6.630;2023-05-07T02:24:01;0.67;;;0.67;;
4819;SDS011;2424;49.696;6.630;2023-05-07T02:29:25;1.67;;;1.00;;
4819;SDS011;2424;49.696;6.630;2023-05-07T02:34:49;1.37;;;1.03;;
4819;SDS011;2424;49.696;6.630;2023-05-07T02:40:12;1.40;;;1.30;;
4819;SDS011;2424;49.696;6.630;2023-05-07T02:45:35;0.93;;;0.93;;
4819;SDS011;2424;49.696;6.630;2023-05-07T02:50:58;0.90;;;0.90;;
4819;SDS011;2424;49.696;6.630;2023-05-07T02:56:20;1.00;;;1.00;;
4819;SDS011;2424;49.696;6.630;2023-05-07T03:01:43;0.93;;;0.93;;
4819;SDS011;2424;49.696;6.630;2023-05-07T03:07:05;1.13;;;1.13;;
4819;SDS011;2424;49.696;6.630;2023-05-07T03:12:27;1.20;;;1.20;;
4819;SDS011;2424;49.696;6.630;2023-05-07T03:17:51;1.00;;;1.00;;
4819;SDS011;2424;49.696;6.630;2023-05-07T03:23:13;1.43;;;1.20;;
4819;SDS011;2424;49.696;6.630;2023-05-07T03:28:34;1.17;;;1.17;;
4819;SDS011;2424;49.696;6.630;2023-05-07T03:33:58;0.83;;;0.83;;
4819;SDS011;2424;49.696;6.630;2023-05-07T03:39:20;1.80;;;1.00;;
4819;SDS011;2424;49.696;6.630;2023-05-07T03:44:42;3.90;;;1.30;;
4819;SDS011;2424;49.696;6.630;2023-05-07T03:50:05;1.00;;;1.00;;
4819;SDS011;2424;49.696;6.630;2023-05-07T03:55:28;1.20;;;1.13;;
4819;SDS011;2424;49.696;6.630;2023-05-07T04:00:50;1.00;;;1.00;;
4819;SDS011;2424;49.696;6.630;2023-05-07T04:06:13;1.10;;;1.10;;
4819;SDS011;2424;49.696;6.630;2023-05-07T04:11:36;1.30;;;1.30;;
4819;SDS011;2424;49.696;6.630;2023-05-07T04:17:00;1.07;;;1.07;;
4819;SDS011;2424;49.696;6.630;2023-05-07T04:22:24;1.57;;;1.50;;
4819;SDS011;2424;49.696;6.630;2023-05-07T04:27:46;0.90;;;0.90;;
4819;SDS011;2424;49.696;6.630;2023-05-07T04:33:08;1.20;;;1.20;;
4819;SDS011;2424;49.696;6.630;2023-05-07T04:38:32;1.40;;;1.40;;
4819;SDS011;2424;49.696;6.630;2023-05-07T04:43:56;1.30;;;1.27;;
4819;SDS011;2424;49.696;6.630;2023-05-07T04:49:18;1.20;;;1.20;;
4819;SDS011;2424;49.696;6.630;2023-05-07T04:54:42;2.27;;;1.60;;
4819;SDS011;2424;49.696;6.630;2023-05-07T05:00:04;1.20;;;1.20;;
4819;SDS011;2424;49.696;6.630;2023-05-07T05:05:28;1.00;;;1.00;;
4819;SDS011;2424;49.696;6.630;2023-05-07T05:10:51;1.50;;;1.40;;
4819;SDS011;2424;49.696;6.630;2023-05-07T05:16:13;1.00;;;1.00;;
4819;SDS011;2424;49.696;6.630;2023-05-07T05:21:35;1.30;;;1.20;;
4819;SDS011;2424;49.696;6.630;2023-05-07T05:26:59;1.27;;;1.27;;
4819;SDS011;2424;49.696;6.630;2023-05-07T05:32:22;1.00;;;1.00;;
4819;SDS011;2424;49.696;6.630;2023-05-07T05:37:43;1.33;;;1.33;;
4819;SDS011;2424;49.696;6.630;2023-05-07T05:43:07;1.23;;;1.20;;
4819;SDS011;2424;49.696;6.630;2023-05-07T05:48:29;0.93;;;0.93;;
4819;SDS011;2424;49.696;6.630;2023-05-07T05:53:51;1.30;;;1.30;;
4819;SDS011;2424;49.696;6.630;2023-05-07T05:59:14;1.47;;;1.40;;
4819;SDS011;2424;49.696;6.630;2023-05-07T06:04:36;10.53;;;1.97;;
4819;SDS011;2424;49.696;6.630;2023-05-07T06:09:58;1.90;;;1.80;;
4819;SDS011;2424;49.696;6.630;2023-05-07T06:15:21;1.80;;;1.70;;
4819;SDS011;2424;49.696;6.630;2023-05-07T06:20:43;1.97;;;1.87;;
4819;SDS011;2424;49.696;6.630;2023-05-07T06:26:05;1.30;;;1.30;;
4819;SDS011;2424;49.696;6.630;2023-05-07T06:31:30;1.87;;;1.80;;
4819;SDS011;2424;49.696;6.630;2023-05-07T06:36:52;1.90;;;1.80;;
4819;SDS011;2424;49.696;6.630;2023-05-07T06:42:15;1.70;;;1.70;;
4819;SDS011;2424;49.696;6.630;2023-05-07T06:47:38;1.13;;;1.13;;
4819;SDS011;2424;49.696;6.630;2023-05-07T06:53:00;1.70;;;1.60;;
4819;SDS011;2424;49.696;6.630;2023-05-07T06:58:22;1.80;;;1.80;;
4819;SDS011;2424;49.696;6.630;2023-05-07T07:03:45;1.73;;;1.60;;
4819;SDS011;2424;49.696;6.630;2023-05-07T07:09:07;1.90;;;1.80;;
4819;SDS011;2424;49.696;6.630;2023-05-07T07:14:29;1.57;;;1.57;;
4819;SDS011;2424;49.696;6.630;2023-05-07T07:19:52;2.00;;;1.90;;
4819;SDS011;2424;49.696;6.630;2023-05-07T07:25:14;2.47;;;1.60;;
4819;SDS011;2424;49.696;6.630;2023-05-07T07:30:36;4.93;;;1.47;;
4819;SDS011;2424;49.696;6.630;2023-05-07T07:35:59;1.73;;;1.63;;
4819;SDS011;2424;49.696;6.630;2023-05-07T07:41:21;1.43;;;1.43;;
4819;SDS011;2424;49.696;6.630;2023-05-07T07:46:43;1.33;;;1.33;;
4819;SDS011;2424;49.696;6.630;2023-05-07T07:52:06;1.47;;;1.40;;
4819;SDS011;2424;49.696;6.630;2023-05-07T07:57:28;1.50;;;1.40;;
4819;SDS011;2424;49.696;6.630;2023-05-07T08:02:50;1.77;;;1.67;;
4819;SDS011;2424;49.696;6.630;2023-05-07T08:08:13;2.03;;;1.93;;
4819;SDS011;2424;49.696;6.630;2023-05-07T08:13:35;1.53;;;1.43;;
4819;SDS011;2424;49.696;6.630;2023-05-07T08:18:57;1.27;;;1.23;;
4819;SDS011;2424;49.696;6.630;2023-05-07T08:24:21;1.87;;;1.77;;
4819;SDS011;2424;49.696;6.630;2023-05-07T08:29:43;1.70;;;1.60;;
4819;SDS011;2424;49.696;6.630;2023-05-07T08:35:07;1.50;;;1.50;;
4819;SDS011;2424;49.696;6.630;2023-05-07T08:40:33;1.60;;;1.50;;
4819;SDS011;2424;49.696;6.630;2023-05-07T08:45:58;1.30;;;1.30;;
4819;SDS011;2424;49.696;6.630;2023-05-07T08:51:22;1.33;;;0.80;;
4819;SDS011;2424;49.696;6.630;2023-05-07T08:56:46;2.43;;;1.60;;
4819;SDS011;2424;49.696;6.630;2023-05-07T09:02:08;1.07;;;1.07;;
4819;SDS011;2424;49.696;6.630;2023-05-07T09:07:31;0.77;;;0.77;;
4819;SDS011;2424;49.696;6.630;2023-05-07T09:12:54;0.73;;;0.73;;
4819;SDS011;2424;49.696;6.630;2023-05-07T09:18:16;0.93;;;0.93;;
4819;SDS011;2424;49.696;6.630;2023-05-07T09:23:39;1.60;;;1.37;;
4819;SDS011;2424;49.696;6.630;2023-05-07T09:29:02;1.33;;;1.20;;
4819;SDS011;2424;49.696;6.630;2023-05-07T09:34:24;1.30;;;1.30;;
4819;SDS011;2424;49.696;6.630;2023-05-07T09:39:47;2.00;;;1.33;;
4819;SDS011;2424;49.696;6.630;2023-05-07T09:45:11;1.03;;;1.03;;
4819;SDS011;2424;49.696;6.630;2023-05-07T09:50:35;1.60;;;1.50;;
4819;SDS011;2424;49.696;6.630;2023-05-07T09:55:58;0.90;;;0.90;;
4819;SDS011;2424;49.696;6.630;2023-05-07T10:01:21;0.90;;;0.90;;
4819;SDS011;2424;49.696;6.630;2023-05-07T10:06:45;0.80;;;0.80;;
4819;SDS011;2424;49.696;6.630;2023-05-07T10:12:08;0.87;;;0.87;;
4819;SDS011;2424;49.696;6.630;2023-05-07T10:17:32;1.50;;;0.77;;
4819;SDS011;2424;49.696;6.630;2023-05-07T10:22:55;1.00;;;1.00;;
4819;SDS011;2424;49.696;6.630;2023-05-07T10:28:19;1.00;;;1.00;;
4819;SDS011;2424;49.696;6.630;2023-05-07T10:33:44;1.00;;;1.00;;
4819;SDS011;2424;49.696;6.630;2023-05-07T10:39:08;1.13;;;1.13;;
4819;SDS011;2424;49.696;6.630;2023-05-07T10:44:30;1.40;;;1.30;;
4819;SDS011;2424;49.696;6.630;2023-05-07T10:55:44;1.20;;;1.17;;
4819;SDS011;2424;49.696;6.630;2023-05-07T11:01:07;0.93;;;0.93;;
4819;SDS011;2424;49.696;6.630;2023-05-07T11:06:32;1.40;;;1.30;;
4819;SDS011;2424;49.696;6.630;2023-05-07T11:11:54;1.23;;;1.23;;
4819;SDS011;2424;49.696;6.630;2023-05-07T11:17:16;1.13;;;1.13;;
4819;SDS011;2424;49.696;6.630;2023-05-07T11:22:39;1.27;;;1.27;;
4819;SDS011;2424;49.696;6.630;2023-05-07T11:28:05;0.97;;;0.97;;
4819;SDS011;2424;49.696;6.630;2023-05-07T11:33:30;1.17;;;1.17;;
4819;SDS011;2424;49.696;6.630;2023-05-07T11:38:54;1.17;;;1.17;;
4819;SDS011;2424;49.696;6.630;2023-05-07T11:44:16;1.10;;;1.10;;
4819;SDS011;2424;49.696;6.630;2023-05-07T11:49:38;1.30;;;1.30;;
4819;SDS011;2424;49.696;6.630;2023-05-07T11:55:02;1.20;;;1.10;;
4819;SDS011;2424;49.696;6.630;2023-05-07T12:00:25;1.00;;;1.00;;
4819;SDS011;2424;49.696;6.630;2023-05-07T12:05:47;1.33;;;1.33;;
4819;SDS011;2424;49.696;6.630;2023-05-07T12:11:12;2.57;;;1.47;;
4819;SDS011;2424;49.696;6.630;2023-05-07T12:16:37;1.10;;;1.10;;
4819;SDS011;2424;49.696;6.630;2023-05-07T12:22:01;1.33;;;1.20;;
4819;SDS011;2424;49.696;6.630;2023-05-07T12:27:25;1.50;;;1.27;;
4819;SDS011;2424;49.696;6.630;2023-05-07T12:32:47;1.73;;;1.50;;
4819;SDS011;2424;49.696;6.630;2023-05-07T12:38:14;1.50;;;1.40;;
4819;SDS011;2424;49.696;6.630;2023-05-07T12:43:38;1.10;;;1.10;;
4819;SDS011;2424;49.696;6.630;2023-05-07T12:49:00;1.57;;;1.23;;
4819;SDS011;2424;49.696;6.630;2023-05-07T12:54:29;1.20;;;1.10;;
4819;SDS011;2424;49.696;6.630;2023-05-07T12:59:57;1.33;;;1.23;;
4819;SDS011;2424;49.696;6.630;2023-05-07T13:05:19;1.10;;;1.10;;
4819;SDS011;2424;49.696;6.630;2023-05-07T13:10:41;1.10;;;1.10;;
4819;SDS011;2424;49.696;6.630;2023-05-07T13:16:05;1.70;;;1.60;;
4819;SDS011;2424;49.696;6.630;2023-05-07T13:21:29;1.27;;;1.27;;
4819;SDS011;2424;49.696;6.630;2023-05-07T13:26:51;1.53;;;1.10;;
4819;SDS011;2424;49.696;6.630;2023-05-07T13:32:15;1.23;;;1.20;;
4819;SDS011;2424;49.696;6.630;2023-05-07T13:37:37;1.03;;;1.03;;
4819;SDS011;2424;49.696;6.630;2023-05-07T13:42:58;1.30;;;1.30;;
4819;SDS011;2424;49.696;6.630;2023-05-07T13:48:23;0.90;;;0.90;;
4819;SDS011;2424;49.696;6.630;2023-05-07T13:53:45;1.83;;;1.50;;
4819;SDS011;2424;49.696;6.630;2023-05-07T13:59:07;1.10;;;1.00;;
4819;SDS011;2424;49.696;6.630;2023-05-07T14:04:31;1.63;;;1.50;;
4819;SDS011;2424;49.696;6.630;2023-05-07T14:09:53;4.20;;;1.97;;
4819;SDS011;2424;49.696;6.630;2023-05-07T14:15:15;1.10;;;1.00;;
4819;SDS011;2424;49.696;6.630;2023-05-07T14:20:39;1.10;;;1.10;;
4819;SDS011;2424;49.696;6.630;2023-05-07T14:26:01;1.90;;;1.80;;
4819;SDS011;2424;49.696;6.630;2023-05-07T14:31:22;1.50;;;1.50;;
4819;SDS011;2424;49.696;6.630;2023-05-07T14:36:46;1.50;;;1.50;;
4819;SDS011;2424;49.696;6.630;2023-05-07T14:42:08;2.47;;;2.13;;
4819;SDS011;2424;49.696;6.630;2023-05-07T14:47:30;1.57;;;1.47;;
4819;SDS011;2424;49.696;6.630;2023-05-07T14:52:53;1.73;;;1.63;;
4819;SDS011;2424;49.696;6.630;2023-05-07T14:58:15;1.60;;;1.60;;
4819;SDS011;2424;49.696;6.630;2023-05-07T15:03:37;1.40;;;1.40;;
4819;SDS011;2424;49.696;6.630;2023-05-07T15:09:00;1.53;;;1.53;;
4819;SDS011;2424;49.696;6.630;2023-05-07T15:14:23;3.70;;;1.70;;
4819;SDS011;2424;49.696;6.630;2023-05-07T15:19:44;1.30;;;1.30;;
4819;SDS011;2424;49.696;6.630;2023-05-07T15:25:08;1.70;;;1.60;;
4819;SDS011;2424;49.696;6.630;2023-05-07T15:30:30;1.80;;;1.70;;
4819;SDS011;2424;49.696;6.630;2023-05-07T15:35:52;1.77;;;1.67;;
4819;SDS011;2424;49.696;6.630;2023-05-07T15:41:15;1.80;;;1.70;;
4819;SDS011;2424;49.696;6.630;2023-05-07T15:46:37;1.93;;;1.70;;
4819;SDS011;2424;49.696;6.630;2023-05-07T15:51:59;3.60;;;3.43;;
4819;SDS011;2424;49.696;6.630;2023-05-07T15:57:22;2.30;;;1.93;;
4819;SDS011;2424;49.696;6.630;2023-05-07T16:02:45;1.60;;;1.60;;
4819;SDS011;2424;49.696;6.630;2023-05-07T16:08:07;1.60;;;1.50;;
4819;SDS011;2424;49.696;6.630;2023-05-07T16:13:30;1.57;;;1.47;;
4819;SDS011;2424;49.696;6.630;2023-05-07T16:18:52;1.60;;;1.60;;
4819;SDS011;2424;49.696;6.630;2023-05-07T16:24:14;1.67;;;1.67;;
4819;SDS011;2424;49.696;6.630;2023-05-07T16:29:38;1.83;;;1.73;;
4819;SDS011;2424;49.696;6.630;2023-05-07T16:35:00;1.20;;;1.20;;
4819;SDS011;2424;49.696;6.630;2023-05-07T16:40:22;1.50;;;1.50;;
4819;SDS011;2424;49.696;6.630;2023-05-07T16:45:46;1.37;;;1.37;;
4819;SDS011;2424;49.696;6.630;2023-05-07T16:51:08;2.47;;;2.27;;
4819;SDS011;2424;49.696;6.630;2023-05-07T16:56:29;1.80;;;1.70;;
4819;SDS011;2424;49.696;6.630;2023-05-07T17:01:53;1.80;;;1.70;;
4819;SDS011;2424;49.696;6.630;2023-05-07T17:07:15;3.03;;;2.00;;
4819;SDS011;2424;49.696;6.630;2023-05-07T17:12:37;2.50;;;1.57;;
4819;SDS011;2424;49.696;6.630;2023-05-07T17:18:00;1.77;;;1.70;;
4819;SDS011;2424;49.696;6.630;2023-05-07T17:23:22;1.83;;;1.73;;
4819;SDS011;2424;49.696;6.630;2023-05-07T17:28:44;2.10;;;1.80;;
4819;SDS011;2424;49.696;6.630;2023-05-07T17:34:07;4.30;;;2.00;;
4819;SDS011;2424;49.696;6.630;2023-05-07T17:39:29;1.47;;;1.40;;
4819;SDS011;2424;49.696;6.630;2023-05-07T17:44:51;1.30;;;1.30;;
4819;SDS011;2424;49.696;6.630;2023-05-07T17:50:15;1.90;;;1.90;;
4819;SDS011;2424;49.696;6.630;2023-05-07T17:55:39;1.30;;;1.30;;
4819;SDS011;2424;49.696;6.630;2023-05-07T18:01:02;1.90;;;1.80;;
4819;SDS011;2424;49.696;6.630;2023-05-07T18:06:25;2.00;;;1.17;;
4819;SDS011;2424;49.696;6.630;2023-05-07T18:11:47;1.43;;;1.43;;
4819;SDS011;2424;49.696;6.630;2023-05-07T18:17:09;1.00;;;1.00;;
4819;SDS011;2424;49.696;6.630;2023-05-07T18:22:33;2.93;;;1.30;;
4819;SDS011;2424;49.696;6.630;2023-05-07T18:27:55;0.70;;;0.70;;
4819;SDS011;2424;49.696;6.630;2023-05-07T18:33:28;1.37;;;1.03;;
4819;SDS011;2424;49.696;6.630;2023-05-07T18:38:52;1.20;;;1.20;;
4819;SDS011;2424;49.696;6.630;2023-05-07T18:44:14;0.70;;;0.70;;
4819;SDS011;2424;49.696;6.630;2023-05-07T18:49:36;0.30;;;0.30;;
4819;SDS011;2424;49.696;6.630;2023-05-07T18:54:59;0.70;;;0.40;;
4819;SDS011;2424;49.696;6.630;2023-05-07T19:00:21;0.57;;;0.57;;
4819;SDS011;2424;49.696;6.630;2023-05-07T19:05:43;0.40;;;0.40;;
4819;SDS011;2424;49.696;6.630;2023-05-07T19:11:07;0.53;;;0.53;;
4819;SDS011;2424;49.696;6.630;2023-05-07T19:16:29;0.50;;;0.50;;
4819;SDS011;2424;49.696;6.630;2023-05-07T19:21:51;0.80;;;0.80;;
4819;SDS011;2424;49.696;6.630;2023-05-07T19:27:14;0.87;;;0.77;;
4819;SDS011;2424;49.696;6.630;2023-05-07T19:32:37;0.67;;;0.67;;
4819;SDS011;2424;49.696;6.630;2023-05-07T19:37:59;0.40;;;0.40;;
4819;SDS011;2424;49.696;6.630;2023-05-07T19:43:22;3.33;;;0.70;;
4819;SDS011;2424;49.696;6.630;2023-05-07T19:48:44;0.57;;;0.57;;
4819;SDS011;2424;49.696;6.630;2023-05-07T19:54:06;1.00;;;1.00;;
4819;SDS011;2424;49.696;6.630;2023-05-07T19:59:30;1.07;;;1.07;;
4819;SDS011;2424;49.696;6.630;2023-05-07T20:04:52;0.83;;;0.83;;
4819;SDS011;2424;49.696;6.630;2023-05-07T20:10:14;1.47;;;1.30;;
4819;SDS011;2424;49.696;6.630;2023-05-07T20:15:37;0.63;;;0.63;;
4819;SDS011;2424;49.696;6.630;2023-05-07T20:21:00;0.70;;;0.60;;
4819;SDS011;2424;49.696;6.630;2023-05-07T20:26:23;0.30;;;0.27;;
4819;SDS011;2424;49.696;6.630;2023-05-07T20:31:47;0.90;;;0.90;;
4819;SDS011;2424;49.696;6.630;2023-05-07T20:37:09;0.73;;;0.73;;
4819;SDS011;2424;49.696;6.630;2023-05-07T20:42:33;0.40;;;0.40;;
4819;SDS011;2424;49.696;6.630;2023-05-07T20:47:56;0.30;;;0.23;;
4819;SDS011;2424;49.696;6.630;2023-05-07T20:53:18;0.53;;;0.53;;
4819;SDS011;2424;49.696;6.630;2023-05-07T20:58:40;2.07;;;1.87;;
4819;SDS011;2424;49.696;6.630;2023-05-07T21:04:04;0.80;;;0.80;;
4819;SDS011;2424;49.696;6.630;2023-05-07T21:09:25;1.00;;;1.00;;
4819;SDS011;2424;49.696;6.630;2023-05-07T21:14:47;0.83;;;0.83;;
4819;SDS011;2424;49.696;6.630;2023-05-07T21:20:11;0.90;;;0.90;;
4819;SDS011;2424;49.696;6.630;2023-05-07T21:25:35;0.80;;;0.80;;
4819;SDS011;2424;49.696;6.630;2023-05-07T21:30:57;0.80;;;0.80;;
4819;SDS011;2424;49.696;6.630;2023-05-07T21:36:21;0.80;;;0.80;;
4819;SDS011;2424;49.696;6.630;2023-05-07T21:41:43;1.00;;;1.00;;
4819;SDS011;2424;49.696;6.630;2023-05-07T21:47:05;2.20;;;0.90;;
4819;SDS011;2424;49.696;6.630;2023-05-07T21:52:28;0.73;;;0.73;;
4819;SDS011;2424;49.696;6.630;2023-05-07T21:57:51;0.87;;;0.87;;
4819;SDS011;2424;49.696;6.630;2023-05-07T22:03:12;3.03;;;1.00;;
4819;SDS011;2424;49.696;6.630;2023-05-07T22:08:36;1.13;;;1.13;;
4819;SDS011;2424;49.696;6.630;2023-05-07T22:13:58;1.57;;;1.47;;
4819;SDS011;2424;49.696;6.630;2023-05-07T22:19:20;0.97;;;0.97;;
4819;SDS011;2424;49.696;6.630;2023-05-07T22:24:43;1.23;;;1.23;;
4819;SDS011;2424;49.696;6.630;2023-05-07T22:30:06;1.33;;;1.33;;
4819;SDS011;2424;49.696;6.630;2023-05-07T22:35:28;1.07;;;1.00;;
4819;SDS011;2424;49.696;6.630;2023-05-07T22:40:52;0.90;;;0.90;;
4819;SDS011;2424;49.696;6.630;2023-05-07T22:46:14;1.03;;;1.03;;
4819;SDS011;2424;49.696;6.630;2023-05-07T22:51:36;0.80;;;0.80;;
4819;SDS011;2424;49.696;6.630;2023-05-07T22:56:59;1.20;;;1.20;;
4819;SDS011;2424;49.696;6.630;2023-05-07T23:02:22;1.33;;;1.33;;
4819;SDS011;2424;49.696;6.630;2023-05-07T23:07:46;1.03;;;1.03;;
4819;SDS011;2424;49.696;6.630;2023-05-07T23:13:09;1.17;;;1.17;;
4819;SDS011;2424;49.696;6.630;2023-05-07T23:18:36;1.00;;;1.00;;
4819;SDS011;2424;49.696;6.630;2023-05-07T23:23:57;1.30;;;1.30;;
4819;SDS011;2424;49.696;6.630;2023-05-07T23:29:21;1.20;;;1.10;;
4819;SDS011;2424;49.696;6.630;2023-05-07T23:34:43;1.30;;;1.30;;
4819;SDS011;2424;49.696;6.630;2023-05-07T23:40:05;1.80;;;1.27;;
4819;SDS011;2424;49.696;6.630;2023-05-07T23:45:29;1.00;;;0.90;;
4819;SDS011;2424;49.696;6.630;2023-05-07T23:50:51;1.27;;;1.10;;
4819;SDS011;2424;49.696;6.630;2023-05-07T23:56:13;1.17;;;1.17;;
